sensor_id;sensor_type;location;lat;lon;timestamp;pressure;altitude;pressure_sealevel;temperature;humidity
69911;BME280;63555;49.920;17.868;2023-02-12T00:02:49;100038.94;;;2.88;86.99
69911;BME280;63555;49.920;17.868;2023-02-12T00:07:49;100037.13;;;2.92;86.84
69911;BME280;63555;49.920;17.868;2023-02-12T00:12:52;100039.53;;;2.99;86.75
69911;BME280;63555;49.920;17.868;2023-02-12T00:17:52;100039.44;;;3.04;86.63
69911;BME280;63555;49.920;17.868;2023-02-12T00:22:53;100042.88;;;3.04;87.15
69911;BME280;63555;49.920;17.868;2023-02-12T00:27:53;100046.38;;;3.03;87.20
69911;BME280;63555;49.920;17.868;2023-02-12T00:32:54;100047.19;;;3.05;87.43
69911;BME280;63555;49.920;17.868;2023-02-12T00:37:54;100052.44;;;3.04;87.00
69911;BME280;63555;49.920;17.868;2023-02-12T00:42:54;100046.41;;;3.02;87.25
69911;BME280;63555;49.920;17.868;2023-02-12T00:47:55;100031.78;;;2.96;86.79
69911;BME280;63555;49.920;17.868;2023-02-12T00:52:55;100042.38;;;2.90;87.31
69911;BME280;63555;49.920;17.868;2023-02-12T00:57:55;100051.16;;;2.86;86.87
69911;BME280;63555;49.920;17.868;2023-02-12T01:02:56;100053.78;;;2.84;87.68
69911;BME280;63555;49.920;17.868;2023-02-12T01:07:56;100049.44;;;2.85;87.26
69911;BME280;63555;49.920;17.868;2023-02-12T01:12:57;100061.56;;;2.86;87.53
69911;BME280;63555;49.920;17.868;2023-02-12T01:17:57;100063.13;;;2.93;87.77
69911;BME280;63555;49.920;17.868;2023-02-12T01:22:58;100061.28;;;2.98;87.34
69911;BME280;63555;49.920;17.868;2023-02-12T01:28:00;100075.94;;;3.02;87.54
69911;BME280;63555;49.920;17.868;2023-02-12T01:33:00;100076.75;;;3.04;87.33
69911;BME280;63555;49.920;17.868;2023-02-12T01:38:01;100068.13;;;3.02;88.09
69911;BME280;63555;49.920;17.868;2023-02-12T01:43:02;100079.56;;;2.97;87.83
69911;BME280;63555;49.920;17.868;2023-02-12T01:48:02;100087.59;;;2.87;87.20
69911;BME280;63555;49.920;17.868;2023-02-12T01:53:03;100079.91;;;2.81;87.16
69911;BME280;63555;49.920;17.868;2023-02-12T01:58:03;100098.22;;;2.78;87.13
69911;BME280;63555;49.920;17.868;2023-02-12T02:03:05;100094.78;;;2.76;87.99
69911;BME280;63555;49.920;17.868;2023-02-12T02:08:05;100104.34;;;2.76;87.69
69911;BME280;63555;49.920;17.868;2023-02-12T02:13:06;100086.28;;;2.68;87.27
69911;BME280;63555;49.920;17.868;2023-02-12T02:24:29;100112.38;;;2.67;88.54
69911;BME280;63555;49.920;17.868;2023-02-12T02:35:11;100105.16;;;2.78;88.38
69911;BME280;63555;49.920;17.868;2023-02-12T02:40:17;100108.53;;;2.83;88.40
69911;BME280;63555;49.920;17.868;2023-02-12T02:45:25;100119.69;;;2.88;88.04
69911;BME280;63555;49.920;17.868;2023-02-12T02:50:29;100126.53;;;2.94;87.92
69911;BME280;63555;49.920;17.868;2023-02-12T02:55:37;100124.72;;;2.96;88.26
69911;BME280;63555;49.920;17.868;2023-02-12T03:01:00;100132.47;;;2.99;88.21
69911;BME280;63555;49.920;17.868;2023-02-12T03:06:13;100138.50;;;3.01;88.12
69911;BME280;63555;49.920;17.868;2023-02-12T03:11:23;100148.03;;;3.02;88.55
69911;BME280;63555;49.920;17.868;2023-02-12T03:16:28;100142.00;;;3.00;88.57
69911;BME280;63555;49.920;17.868;2023-02-12T03:21:47;100162.81;;;3.01;88.92
69911;BME280;63555;49.920;17.868;2023-02-12T03:27:26;100169.69;;;3.05;88.13
69911;BME280;63555;49.920;17.868;2023-02-12T03:43:18;100191.13;;;3.16;88.90
69911;BME280;63555;49.920;17.868;2023-02-12T03:48:44;100204.09;;;3.19;88.46
69911;BME280;63555;49.920;17.868;2023-02-12T03:53:46;100215.31;;;3.23;88.71
69911;BME280;63555;49.920;17.868;2023-02-12T03:58:47;100217.06;;;3.23;88.28
69911;BME280;63555;49.920;17.868;2023-02-12T04:03:47;100227.47;;;3.24;88.74
69911;BME280;63555;49.920;17.868;2023-02-12T04:08:48;100236.09;;;3.26;88.96
69911;BME280;63555;49.920;17.868;2023-02-12T04:14:06;100238.69;;;3.28;88.48
69911;BME280;63555;49.920;17.868;2023-02-12T04:19:12;100237.75;;;3.30;88.72
69911;BME280;63555;49.920;17.868;2023-02-12T04:24:24;100247.28;;;3.31;88.83
69911;BME280;63555;49.920;17.868;2023-02-12T04:35:01;100238.53;;;3.34;88.58
69911;BME280;63555;49.920;17.868;2023-02-12T04:40:07;100241.09;;;3.35;88.67
69911;BME280;63555;49.920;17.868;2023-02-12T04:45:10;100247.22;;;3.34;88.72
69911;BME280;63555;49.920;17.868;2023-02-12T04:50:11;100251.56;;;3.34;88.78
69911;BME280;63555;49.920;17.868;2023-02-12T04:55:12;100262.00;;;3.34;88.62
69911;BME280;63555;49.920;17.868;2023-02-12T05:00:13;100275.00;;;3.35;88.91
69911;BME280;63555;49.920;17.868;2023-02-12T05:05:14;100278.47;;;3.36;88.72
69911;BME280;63555;49.920;17.868;2023-02-12T05:10:14;100281.97;;;3.35;89.02
69911;BME280;63555;49.920;17.868;2023-02-12T05:15:15;100288.94;;;3.34;88.37
69911;BME280;63555;49.920;17.868;2023-02-12T05:20:15;100291.53;;;3.34;88.52
69911;BME280;63555;49.920;17.868;2023-02-12T05:25:16;100304.56;;;3.34;88.65
69911;BME280;63555;49.920;17.868;2023-02-12T05:30:16;100309.78;;;3.34;88.49
69911;BME280;63555;49.920;17.868;2023-02-12T05:35:16;100330.66;;;3.34;89.10
69911;BME280;63555;49.920;17.868;2023-02-12T05:40:17;100340.22;;;3.34;88.87
69911;BME280;63555;49.920;17.868;2023-02-12T05:45:17;100341.06;;;3.34;88.99
69911;BME280;63555;49.920;17.868;2023-02-12T05:50:18;100335.88;;;3.33;88.54
69911;BME280;63555;49.920;17.868;2023-02-12T05:55:18;100348.06;;;3.32;88.27
69911;BME280;63555;49.920;17.868;2023-02-12T06:00:19;100357.66;;;3.30;89.13
69911;BME280;63555;49.920;17.868;2023-02-12T06:05:19;100358.56;;;3.29;88.63
69911;BME280;63555;49.920;17.868;2023-02-12T06:10:19;100375.09;;;3.28;88.92
69911;BME280;63555;49.920;17.868;2023-02-12T06:15:20;100377.69;;;3.28;89.09
69911;BME280;63555;49.920;17.868;2023-02-12T06:20:20;100395.88;;;3.31;89.53
69911;BME280;63555;49.920;17.868;2023-02-12T06:25:20;100402.81;;;3.32;89.34
69911;BME280;63555;49.920;17.868;2023-02-12T06:30:21;100415.78;;;3.35;89.04
69911;BME280;63555;49.920;17.868;2023-02-12T06:35:21;100424.44;;;3.37;88.59
69911;BME280;63555;49.920;17.868;2023-02-12T06:40:22;100427.84;;;3.41;88.66
69911;BME280;63555;49.920;17.868;2023-02-12T06:45:22;100427.81;;;3.42;89.38
69911;BME280;63555;49.920;17.868;2023-02-12T06:50:23;100445.13;;;3.46;89.17
69911;BME280;63555;49.920;17.868;2023-02-12T06:55:24;100441.63;;;3.49;88.74
69911;BME280;63555;49.920;17.868;2023-02-12T07:00:24;100449.34;;;3.54;89.13
69911;BME280;63555;49.920;17.868;2023-02-12T07:05:25;100447.50;;;3.60;89.20
69911;BME280;63555;49.920;17.868;2023-02-12T07:10:25;100454.38;;;3.64;89.13
69911;BME280;63555;49.920;17.868;2023-02-12T07:15:26;100465.56;;;3.69;89.09
69911;BME280;63555;49.920;17.868;2023-02-12T07:20:26;100469.75;;;3.76;89.02
69911;BME280;63555;49.920;17.868;2023-02-12T07:25:26;100480.03;;;3.84;88.81
69911;BME280;63555;49.920;17.868;2023-02-12T07:30:27;100470.41;;;3.88;88.87
69911;BME280;63555;49.920;17.868;2023-02-12T07:35:27;100471.19;;;3.91;88.92
69911;BME280;63555;49.920;17.868;2023-02-12T07:40:27;100488.41;;;4.00;88.68
69911;BME280;63555;49.920;17.868;2023-02-12T07:45:28;100492.66;;;4.04;88.61
69911;BME280;63555;49.920;17.868;2023-02-12T07:50:28;100503.81;;;4.12;88.71
69911;BME280;63555;49.920;17.868;2023-02-12T07:55:28;100511.44;;;4.21;88.78
69911;BME280;63555;49.920;17.868;2023-02-12T08:00:29;100512.16;;;4.28;88.65
69911;BME280;63555;49.920;17.868;2023-02-12T08:05:29;100515.56;;;4.31;88.85
69911;BME280;63555;49.920;17.868;2023-02-12T08:10:29;100525.94;;;4.36;88.76
69911;BME280;63555;49.920;17.868;2023-02-12T08:15:30;100525.63;;;4.50;88.88
69911;BME280;63555;49.920;17.868;2023-02-12T08:20:33;100527.03;;;4.64;88.60
69911;BME280;63555;49.920;17.868;2023-02-12T08:25:33;100539.97;;;4.70;88.59
69911;BME280;63555;49.920;17.868;2023-02-12T08:30:35;100538.03;;;4.78;88.35
69911;BME280;63555;49.920;17.868;2023-02-12T08:35:35;100539.53;;;4.89;88.49
69911;BME280;63555;49.920;17.868;2023-02-12T08:40:35;100541.72;;;5.05;88.36
69911;BME280;63555;49.920;17.868;2023-02-12T08:45:36;100538.69;;;5.24;88.37
69911;BME280;63555;49.920;17.868;2023-02-12T08:50:36;100535.41;;;5.50;88.30
69911;BME280;63555;49.920;17.868;2023-02-12T08:55:38;100549.44;;;5.78;87.59
69911;BME280;63555;49.920;17.868;2023-02-12T09:00:38;100548.78;;;6.02;87.52
69911;BME280;63555;49.920;17.868;2023-02-12T09:05:39;100546.41;;;6.26;88.09
69911;BME280;63555;49.920;17.868;2023-02-12T09:10:41;100558.53;;;6.58;87.13
69911;BME280;63555;49.920;17.868;2023-02-12T09:15:43;100563.50;;;6.67;87.01
69911;BME280;63555;49.920;17.868;2023-02-12T09:20:45;100570.06;;;6.80;86.57
69911;BME280;63555;49.920;17.868;2023-02-12T09:25:45;100575.72;;;6.96;86.31
69911;BME280;63555;49.920;17.868;2023-02-12T09:30:46;100573.16;;;6.93;85.59
69911;BME280;63555;49.920;17.868;2023-02-12T09:35:47;100590.97;;;6.83;85.80
69911;BME280;63555;49.920;17.868;2023-02-12T09:41:12;100587.84;;;7.00;86.84
69911;BME280;63555;49.920;17.868;2023-02-12T09:51:11;100593.50;;;8.63;85.54
69911;BME280;63555;49.920;17.868;2023-02-12T09:56:16;100608.56;;;8.83;83.21
69911;BME280;63555;49.920;17.868;2023-02-12T10:01:20;100610.44;;;8.80;83.43
69911;BME280;63555;49.920;17.868;2023-02-12T10:06:24;100607.69;;;9.26;83.47
69911;BME280;63555;49.920;17.868;2023-02-12T10:17:06;100613.09;;;9.02;81.99
69911;BME280;63555;49.920;17.868;2023-02-12T10:27:50;100616.41;;;10.71;80.44
69911;BME280;63555;49.920;17.868;2023-02-12T10:33:13;100612.03;;;10.89;79.77
69911;BME280;63555;49.920;17.868;2023-02-12T10:38:21;100623.31;;;11.47;76.73
69911;BME280;63555;49.920;17.868;2023-02-12T10:43:24;100624.53;;;10.85;76.82
69911;BME280;63555;49.920;17.868;2023-02-12T10:48:34;100627.66;;;10.35;77.15
69911;BME280;63555;49.920;17.868;2023-02-12T10:53:41;100632.09;;;10.14;76.94
69911;BME280;63555;49.920;17.868;2023-02-12T11:03:48;100627.53;;;9.35;77.35
69911;BME280;63555;49.920;17.868;2023-02-12T11:08:49;100621.84;;;9.02;76.87
69911;BME280;63555;49.920;17.868;2023-02-12T11:14:02;100628.03;;;8.54;76.52
69911;BME280;63555;49.920;17.868;2023-02-12T11:19:05;100618.97;;;8.15;77.41
69911;BME280;63555;49.920;17.868;2023-02-12T11:24:29;100623.34;;;8.14;77.42
69911;BME280;63555;49.920;17.868;2023-02-12T11:29:30;100626.22;;;8.31;77.05
69911;BME280;63555;49.920;17.868;2023-02-12T11:34:33;100630.69;;;8.29;76.42
69911;BME280;63555;49.920;17.868;2023-02-12T11:39:35;100620.72;;;8.14;76.48
69911;BME280;63555;49.920;17.868;2023-02-12T11:44:39;100616.94;;;7.98;76.62
69911;BME280;63555;49.920;17.868;2023-02-12T11:49:48;100613.50;;;7.96;76.81
69911;BME280;63555;49.920;17.868;2023-02-12T11:54:51;100622.56;;;8.12;75.99
69911;BME280;63555;49.920;17.868;2023-02-12T11:59:53;100612.97;;;8.36;75.48
69911;BME280;63555;49.920;17.868;2023-02-12T12:05:00;100605.69;;;8.66;75.41
69911;BME280;63555;49.920;17.868;2023-02-12T12:10:20;100619.56;;;8.93;74.24
69911;BME280;63555;49.920;17.868;2023-02-12T12:15:34;100611.75;;;8.91;73.68
69911;BME280;63555;49.920;17.868;2023-02-12T12:21:10;100615.19;;;8.70;73.35
69911;BME280;63555;49.920;17.868;2023-02-12T12:26:25;100621.13;;;8.52;74.05
69911;BME280;63555;49.920;17.868;2023-02-12T12:31:37;100622.38;;;8.42;73.75
69911;BME280;63555;49.920;17.868;2023-02-12T12:52:44;100622.72;;;7.30;74.72
69911;BME280;63555;49.920;17.868;2023-02-12T12:58:11;100622.19;;;6.91;75.87
69911;BME280;63555;49.920;17.868;2023-02-12T13:03:36;100623.94;;;6.62;76.08
69911;BME280;63555;49.920;17.868;2023-02-12T13:08:51;100627.53;;;6.58;76.94
69911;BME280;63555;49.920;17.868;2023-02-12T13:14:21;100623.66;;;6.71;75.98
69911;BME280;63555;49.920;17.868;2023-02-12T13:24:49;100617.69;;;6.96;75.61
69911;BME280;63555;49.920;17.868;2023-02-12T13:35:23;100623.69;;;6.99;75.76
69911;BME280;63555;49.920;17.868;2023-02-12T13:40:27;100625.34;;;7.30;74.85
69911;BME280;63555;49.920;17.868;2023-02-12T14:01:12;100627.59;;;8.18;72.89
69911;BME280;63555;49.920;17.868;2023-02-12T14:06:17;100620.06;;;8.32;72.22
69911;BME280;63555;49.920;17.868;2023-02-12T14:11:22;100632.63;;;8.24;72.35
69911;BME280;63555;49.920;17.868;2023-02-12T14:16:43;100626.47;;;8.25;72.45
69911;BME280;63555;49.920;17.868;2023-02-12T14:21:44;100626.78;;;8.41;72.80
69911;BME280;63555;49.920;17.868;2023-02-12T14:26:44;100622.84;;;8.53;71.58
69911;BME280;63555;49.920;17.868;2023-02-12T14:31:45;100630.28;;;8.42;71.96
69911;BME280;63555;49.920;17.868;2023-02-12T14:36:46;100628.91;;;8.30;72.00
69911;BME280;63555;49.920;17.868;2023-02-12T14:41:55;100631.56;;;8.05;72.08
69911;BME280;63555;49.920;17.868;2023-02-12T14:52:32;100626.34;;;7.52;73.21
69911;BME280;63555;49.920;17.868;2023-02-12T14:57:39;100634.78;;;7.35;73.24
69911;BME280;63555;49.920;17.868;2023-02-12T15:18:47;100638.97;;;6.56;73.75
69911;BME280;63555;49.920;17.868;2023-02-12T15:24:10;100640.06;;;6.18;73.90
69911;BME280;63555;49.920;17.868;2023-02-12T15:29:41;100648.38;;;5.65;74.31
69911;BME280;63555;49.920;17.868;2023-02-12T15:34:47;100647.75;;;5.20;74.97
69911;BME280;63555;49.920;17.868;2023-02-12T15:39:51;100655.69;;;4.75;75.33
69911;BME280;63555;49.920;17.868;2023-02-12T15:45:22;100663.34;;;4.43;76.42
69911;BME280;63555;49.920;17.868;2023-02-12T15:50:21;100662.91;;;4.20;76.62
69911;BME280;63555;49.920;17.868;2023-02-12T15:55:24;100662.50;;;3.95;76.55
69911;BME280;63555;49.920;17.868;2023-02-12T16:00:38;100660.53;;;3.60;76.34
69911;BME280;63555;49.920;17.868;2023-02-12T16:05:39;100662.94;;;3.15;76.65
69911;BME280;63555;49.920;17.868;2023-02-12T16:10:47;100667.78;;;2.79;76.87
69911;BME280;63555;49.920;17.868;2023-02-12T16:16:16;100676.03;;;2.43;77.62
69911;BME280;63555;49.920;17.868;2023-02-12T16:21:21;100679.84;;;2.14;77.59
69911;BME280;63555;49.920;17.868;2023-02-12T16:26:24;100691.38;;;1.89;77.66
69911;BME280;63555;49.920;17.868;2023-02-12T16:31:26;100683.78;;;1.63;77.66
69911;BME280;63555;49.920;17.868;2023-02-12T16:36:29;100674.41;;;1.41;78.50
69911;BME280;63555;49.920;17.868;2023-02-12T16:41:31;100682.38;;;1.19;79.04
69911;BME280;63555;49.920;17.868;2023-02-12T16:46:42;100679.00;;;1.07;78.88
69911;BME280;63555;49.920;17.868;2023-02-12T16:51:47;100683.41;;;0.91;78.85
69911;BME280;63555;49.920;17.868;2023-02-12T16:56:48;100694.72;;;0.73;78.90
69911;BME280;63555;49.920;17.868;2023-02-12T17:02:02;100701.75;;;0.51;78.88
69911;BME280;63555;49.920;17.868;2023-02-12T17:07:14;100698.38;;;0.28;78.88
69911;BME280;63555;49.920;17.868;2023-02-12T17:12:15;100707.06;;;0.12;79.29
69911;BME280;63555;49.920;17.868;2023-02-12T17:17:16;100703.63;;;0.05;80.50
69911;BME280;63555;49.920;17.868;2023-02-12T17:22:19;100693.22;;;-0.06;80.07
69911;BME280;63555;49.920;17.868;2023-02-12T17:27:21;100711.41;;;-0.21;79.83
69911;BME280;63555;49.920;17.868;2023-02-12T17:32:21;100718.31;;;-0.35;80.18
69911;BME280;63555;49.920;17.868;2023-02-12T17:37:23;100715.72;;;-0.50;79.65
69911;BME280;63555;49.920;17.868;2023-02-12T17:42:24;100720.88;;;-0.66;80.00
69911;BME280;63555;49.920;17.868;2023-02-12T17:47:24;100714.84;;;-0.78;80.19
69911;BME280;63555;49.920;17.868;2023-02-12T17:52:25;100715.66;;;-0.87;79.84
69911;BME280;63555;49.920;17.868;2023-02-12T17:57:25;100707.88;;;-0.94;80.24
69911;BME280;63555;49.920;17.868;2023-02-12T18:02:26;100706.97;;;-1.04;80.38
69911;BME280;63555;49.920;17.868;2023-02-12T18:07:26;100720.75;;;-1.16;80.26
69911;BME280;63555;49.920;17.868;2023-02-12T18:12:26;100722.44;;;-1.25;80.86
69911;BME280;63555;49.920;17.868;2023-02-12T18:17:27;100728.44;;;-1.33;81.27
69911;BME280;63555;49.920;17.868;2023-02-12T18:22:28;100728.41;;;-1.45;81.52
69911;BME280;63555;49.920;17.868;2023-02-12T18:27:28;100723.19;;;-1.54;81.19
69911;BME280;63555;49.920;17.868;2023-02-12T18:32:29;100708.50;;;-1.61;81.29
69911;BME280;63555;49.920;17.868;2023-02-12T18:37:29;100717.09;;;-1.67;80.95
69911;BME280;63555;49.920;17.868;2023-02-12T18:42:30;100706.72;;;-1.73;81.46
69911;BME280;63555;49.920;17.868;2023-02-12T18:47:32;100711.81;;;-1.77;81.99
69911;BME280;63555;49.920;17.868;2023-02-12T18:52:32;100705.78;;;-1.81;81.95
69911;BME280;63555;49.920;17.868;2023-02-12T18:57:33;100704.91;;;-1.83;81.73
69911;BME280;63555;49.920;17.868;2023-02-12T19:02:33;100695.38;;;-1.88;81.77
69911;BME280;63555;49.920;17.868;2023-02-12T19:07:33;100701.38;;;-1.96;81.76
69911;BME280;63555;49.920;17.868;2023-02-12T19:12:34;100701.34;;;-2.03;81.42
69911;BME280;63555;49.920;17.868;2023-02-12T19:17:34;100708.19;;;-2.10;81.50
69911;BME280;63555;49.920;17.868;2023-02-12T19:22:34;100704.72;;;-2.10;82.27
69911;BME280;63555;49.920;17.868;2023-02-12T19:27:35;100707.31;;;-2.12;82.55
69911;BME280;63555;49.920;17.868;2023-02-12T19:32:36;100705.59;;;-2.11;82.76
69911;BME280;63555;49.920;17.868;2023-02-12T19:37:37;100703.84;;;-2.14;81.83
69911;BME280;63555;49.920;17.868;2023-02-12T19:42:37;100705.50;;;-2.23;82.29
69911;BME280;63555;49.920;17.868;2023-02-12T19:47:37;100708.03;;;-2.30;82.66
69911;BME280;63555;49.920;17.868;2023-02-12T19:52:38;100708.88;;;-2.35;82.58
69911;BME280;63555;49.920;17.868;2023-02-12T19:57:39;100707.06;;;-2.44;82.74
69911;BME280;63555;49.920;17.868;2023-02-12T20:02:40;100707.03;;;-2.48;82.69
69911;BME280;63555;49.920;17.868;2023-02-12T20:07:42;100715.59;;;-2.54;82.86
69911;BME280;63555;49.920;17.868;2023-02-12T20:12:42;100708.69;;;-2.55;82.26
69911;BME280;63555;49.920;17.868;2023-02-12T20:17:43;100715.56;;;-2.59;82.54
69911;BME280;63555;49.920;17.868;2023-02-12T20:22:43;100709.53;;;-2.59;82.82
69911;BME280;63555;49.920;17.868;2023-02-12T20:27:44;100715.50;;;-2.62;83.04
69911;BME280;63555;49.920;17.868;2023-02-12T20:32:44;100722.34;;;-2.67;83.13
69911;BME280;63555;49.920;17.868;2023-02-12T20:37:45;100719.72;;;-2.71;83.31
69911;BME280;63555;49.920;17.868;2023-02-12T20:42:45;100723.13;;;-2.74;83.33
69911;BME280;63555;49.920;17.868;2023-02-12T20:47:46;100728.25;;;-2.78;83.27
69911;BME280;63555;49.920;17.868;2023-02-12T20:52:46;100736.81;;;-2.82;83.15
69911;BME280;63555;49.920;17.868;2023-02-12T20:57:47;100732.59;;;-2.74;83.57
69911;BME280;63555;49.920;17.868;2023-02-12T21:02:48;100727.75;;;-2.41;84.95
69911;BME280;63555;49.920;17.868;2023-02-12T21:07:49;100728.06;;;-2.01;85.66
69911;BME280;63555;49.920;17.868;2023-02-12T21:12:49;100736.06;;;-1.66;85.52
69911;BME280;63555;49.920;17.868;2023-02-12T21:17:50;100731.00;;;-1.42;85.19
69911;BME280;63555;49.920;17.868;2023-02-12T21:22:51;100741.44;;;-1.20;84.73
69911;BME280;63555;49.920;17.868;2023-02-12T21:27:52;100738.88;;;-1.11;84.46
69911;BME280;63555;49.920;17.868;2023-02-12T21:32:52;100736.31;;;-1.04;84.27
69911;BME280;63555;49.920;17.868;2023-02-12T21:37:53;100731.13;;;-1.04;84.01
69911;BME280;63555;49.920;17.868;2023-02-12T21:42:53;100731.16;;;-1.02;83.82
69911;BME280;63555;49.920;17.868;2023-02-12T21:47:54;100737.16;;;-1.08;83.62
69911;BME280;63555;49.920;17.868;2023-02-12T21:52:54;100733.72;;;-1.10;84.31
69911;BME280;63555;49.920;17.868;2023-02-12T21:57:55;100736.31;;;-1.04;83.99
69911;BME280;63555;49.920;17.868;2023-02-12T22:02:56;100728.56;;;-0.94;83.95
69911;BME280;63555;49.920;17.868;2023-02-12T22:07:56;100729.50;;;-0.85;84.84
69911;BME280;63555;49.920;17.868;2023-02-12T22:12:56;100736.44;;;-0.72;84.62
69911;BME280;63555;49.920;17.868;2023-02-12T22:17:56;100723.47;;;-0.62;84.28
69911;BME280;63555;49.920;17.868;2023-02-12T22:22:57;100733.84;;;-0.53;84.19
69911;BME280;63555;49.920;17.868;2023-02-12T22:27:57;100723.50;;;-0.46;84.23
69911;BME280;63555;49.920;17.868;2023-02-12T22:32:57;100732.13;;;-0.42;84.30
69911;BME280;63555;49.920;17.868;2023-02-12T22:37:58;100738.19;;;-0.34;84.33
69911;BME280;63555;49.920;17.868;2023-02-12T22:42:58;100737.31;;;-0.28;84.06
69911;BME280;63555;49.920;17.868;2023-02-12T22:47:58;100733.00;;;-0.23;84.22
69911;BME280;63555;49.920;17.868;2023-02-12T22:52:59;100738.19;;;-0.14;84.39
69911;BME280;63555;49.920;17.868;2023-02-12T22:57:59;100730.41;;;-0.10;84.28
69911;BME280;63555;49.920;17.868;2023-02-12T23:03:00;100737.31;;;-0.04;84.16
69911;BME280;63555;49.920;17.868;2023-02-12T23:08:00;100732.13;;;-0.01;84.13
69911;BME280;63555;49.920;17.868;2023-02-12T23:13:01;100725.22;;;0.04;84.03
69911;BME280;63555;49.920;17.868;2023-02-12T23:18:02;100726.94;;;0.10;84.25
69911;BME280;63555;49.920;17.868;2023-02-12T23:23:02;100726.06;;;0.14;83.95
69911;BME280;63555;49.920;17.868;2023-02-12T23:28:03;100721.75;;;0.16;84.07
69911;BME280;63555;49.920;17.868;2023-02-12T23:33:03;100712.25;;;0.16;84.08
69911;BME280;63555;49.920;17.868;2023-02-12T23:38:04;100710.50;;;0.14;83.83
69911;BME280;63555;49.920;17.868;2023-02-12T23:43:04;100719.16;;;0.10;84.33
69911;BME280;63555;49.920;17.868;2023-02-12T23:48:05;100733.88;;;0.08;84.09
69911;BME280;63555;49.920;17.868;2023-02-12T23:53:05;100732.13;;;0.11;84.37
69911;BME280;63555;49.920;17.868;2023-02-12T23:58:06;100720.88;;;0.15;84.26
